Terminal Aerodrome Forecast
Issued by NWS

Home | Current Version | Previous Version | Text Only | Print | Product List | Glossary On
Versions: 1 2 3 4 5 6 7 8 9 10 11 12 13 14
000
FTUS43 KAPX 010538
TAFTVC
TAF
KTVC 010538Z 0106/0206 02011G23KT P6SM BKN035
     FM010800 03009G15KT P6SM BKN035
     FM011300 01007KT P6SM FEW035
     FM012300 00000KT P6SM SKC=

USA.gov is the U.S. government's official web portal to all federal, state and local government web resources and services.